Aeroporto :
LOGIN :

Iscrizione | Disclaimer

   EN    FR    IT 

 










Sommario :    VFR   VFR Marginale   IFR   IFR Intensivo   IFR Molto Intensivo
Visibilità : 
Base nubi : 
>= 8 km
>= 3000ft
5 / 8 km
1000 / 3000 ft
1500m / 5 km
500 / 1000 ft
800 / 1500m
200 / 500 ft
< 800m
< 200 ft
Simboli :   Temporali  Nebbia  Neve Forte  Precipitazioni Forti  Vento > 20 kt
SIGMETs :   Varie  Temporali  Ghiacco  Turbolenza  Onda orograficha  Ceneri Vulcaniche






- Altitudine del aeroporto : 135 ft
- Codice IATA : EDI


EGPH - Edinburgh

ULTIMO METAR :
  • 020650Z 24016KT 9999 SCT013 08/07 Q1006

METARs OBSOLETI :
  • 020620Z 24016KT 9999 SCT014 09/07 Q1007
  • 020550Z 24017KT 9999 SCT014 08/07 Q1007
  • 020520Z 24021KT 9999 SCT014 08/06 Q1007
  • 020450Z 23019KT 9999 FEW017 BKN032 08/05 Q1008
  • 020420Z 24022KT 9999 FEW019 07/04 Q1008

TAF AMD TAF EGPH
Valido dal 02 a 06 ore il 03 a 06 ore UTC


020643Z 0206/0306 25018KT 9999 SCT030
TEMPO 0206/0218 28022G32KT
PROB30
TEMPO 0206/0218 8000 -SHRA BKN013
BECMG 0219/0222 25008KT
ATIS : +44 131 339 2823



MetMap, La meteo Aeronautica in un colpo d'occhio ! - Copyright ORBIFLY Dicembre 2007 - Disclaimer

ORBIFLY MET'MAP TEAM :

Programmazione e sviluppo : Alexandra Zaïnal
Concezione : Baudouin d'Aumeries
Aiuto per la programmazione : Marc-Olivier Méhu
Supporto tecnico e logistico : Manuel Goepfert
Aiuto per la traduzione : Arnaldo La Scala

Contatto : metmap@orbifly.com




FONTI E CREDITI :

   NOAA